Latest Weather Observations for Bankstown

IDN60901

Issued at 6:21 am EST Monday 25 July 2016 (issued every 10 minutes, with the page automatically refreshed every 10 minutes)

About weather observations | Map of Sydney area stations | Latest observations for Sydney area | Other Formats
Station Details ID: 066137 Name: BANKSTOWN AIRPORT AWS Lat: -33.92 Lon: 150.99 Height: 6.5 m
Data from the previous 72 hours. | See also: Recent months at Bankstown
Date/Time
EST
Temp
°C
App
Temp
°C
Dew
Point
°C
Rel
Hum
%
Delta-T
°C
Wind Press
QNH
hPa
Press
MSL
hPa
Rain since
9am
mm
Dir  Spd
km/h
Gust
km/h
Spd
kts
Gust
kts
25/06:00am 7.8 4.1 2.3 68 2.3 NNW 11 15 6 8 1011.4 1011.4 0.0
25/05:30am 3.7 1.0 2.4 91 0.5 NNW 6 9 3 5 1011.5 1011.5 0.0
25/05:00am 3.9 1.2 2.4 90 0.6 S 6 9 3 5 1011.2 1011.2 0.0
25/04:30am 4.5 2.9 2.4 86 0.8 CALM 0 0 0 0 1010.9 1010.9 0.0
25/04:00am 4.7 2.4 2.6 86 0.9 SSW 4 6 2 3 1010.8 1010.8 0.0
25/03:30am 4.8 2.8 2.5 85 0.9 SSW 2 7 1 4 1010.7 1010.7 0.0
25/03:00am 4.7 3.2 3.0 89 0.7 CALM 0 0 0 0 1010.6 1010.6 0.0
25/02:30am 4.6 2.1 1.8 82 1.1 WSW 4 9 2 5 1010.5 1010.5 0.0
25/02:00am 6.4 4.1 2.5 76 1.6 NW 4 7 2 4 1010.8 1010.8 0.0
25/01:30am 7.1 4.3 2.0 70 2.1 WNW 6 9 3 5 1011.3 1011.3 0.0
25/01:00am 8.5 4.9 3.1 69 2.3 NW 11 15 6 8 1011.6 1011.6 0.0
25/12:30am 8.6 3.8 2.4 65 2.6 NNW 17 20 9 11 1011.5 1011.5 0.0
25/12:00am 8.8 4.3 2.4 64 2.7 NNW 15 20 8 11 1011.6 1011.6 0.0
 
Date/Time
EST
Temp
°C
App
Temp
°C
Dew
Point
°C
Rel
Hum
%
Delta-T
°C
Wind Press
QNH
hPa
Press
MSL
hPa
Rain since
9am
mm
Dir  Spd
km/h
Gust
km/h
Spd
kts
Gust
kts
24/11:30pm 8.5 4.4 2.1 64 2.7 NNW 13 17 7 9 1012.0 1012.0 0.0
24/11:00pm 8.1 4.0 2.1 66 2.5 NNW 13 19 7 10 1012.3 1012.3 0.0
24/10:30pm 8.3 4.9 1.7 63 2.7 N 9 11 5 6 1012.4 1012.4 0.0
24/10:00pm 8.0 4.2 1.6 64 2.6 NNW 11 15 6 8 1012.6 1012.6 0.0
24/09:30pm 8.8 4.6 1.5 60 3.0 NNW 13 17 7 9 1012.9 1012.9 0.0
24/09:00pm 9.5 5.6 1.2 56 3.4 NNW 11 15 6 8 1012.7 1012.7 0.0
24/08:30pm 10.1 5.8 1.2 54 3.7 N 13 22 7 12 1012.5 1012.5 0.0
24/08:00pm 9.4 5.1 1.3 57 3.3 N 13 15 7 8 1013.2 1013.2 0.0
24/07:30pm 10.1 5.9 1.5 55 3.6 NNW 13 19 7 10 1013.2 1013.2 0.0
24/07:00pm 10.0 5.8 1.4 55 3.6 NNW 13 20 7 11 1013.0 1013.0 0.0
24/06:30pm 9.8 6.8 1.7 57 3.4 N 7 9 4 5 1012.9 1012.9 0.0
24/06:00pm 10.4 7.3 1.2 53 3.8 N 7 9 4 5 1012.5 1012.5 0.0
24/05:30pm 10.7 7.2 1.0 51 4.0 N 9 13 5 7 1012.2 1012.2 0.0
24/05:00pm 11.4 7.4 0.8 48 4.4 NNW 11 17 6 9 1011.9 1011.9 0.0
24/04:30pm 13.3 9.2 0.0 40 5.5 NW 11 15 6 8 1011.5 1011.5 0.0
24/04:00pm 13.7 8.1 0.0 39 5.7 WNW 19 26 10 14 1011.9 1011.9 0.0
24/03:30pm 13.9 8.8 0.9 41 5.5 WNW 17 22 9 12 1011.9 1011.9 0.0
24/03:00pm 14.0 8.8 -0.1 38 5.9 WNW 17 22 9 12 1012.2 1012.2 0.0
24/02:30pm 13.6 7.8 -0.1 39 5.7 NW 20 28 11 15 1012.2 1012.2 0.0
24/02:00pm 13.2 7.5 0.3 41 5.4 WNW 20 32 11 17 1012.6 1012.6 0.0
24/01:30pm 12.2 7.5 0.9 46 4.7 W 15 30 8 16 1013.3 1013.3 0.0
24/01:00pm 12.0 7.2 0.5 45 4.8 W 15 24 8 13 1013.7 1013.7 0.0
24/12:30pm 11.6 7.7 1.3 49 4.3 NW 11 15 6 8 1014.2 1014.2 0.0
24/12:00pm 10.8 5.7 0.8 50 4.1 NW 17 22 9 12 1014.8 1014.8 0.0
24/11:30am 10.4 5.2 0.4 50 4.1 WNW 17 24 9 13 1015.8 1015.8 0.0
24/11:00am 9.7 5.0 1.1 55 3.5 NW 15 24 8 13 1015.9 1015.9 0.0
24/10:30am 9.2 4.5 0.9 56 3.4 NW 15 17 8 9 1016.1 1016.1 0.0
24/10:00am 8.8 4.4 0.5 56 3.3 WNW 13 19 7 10 1016.2 1016.2 0.0
24/09:30am 8.2 3.9 0.7 59 3.0 NW 13 17 7 9 1016.4 1016.4 0.0
24/09:00am 7.4 3.1 0.8 63 2.6 NW 13 17 7 9 1016.3 1016.3 0.0
24/08:30am 6.6 2.7 1.1 68 2.2 NW 11 15 6 8 1015.9 1015.9 0.0
24/08:00am 6.1 2.1 0.6 68 2.1 NW 11 17 6 9 1015.8 1015.8 0.0
24/07:30am 5.6 1.2 0.4 69 2.0 WNW 13 17 7 9 1015.5 1015.5 0.0
24/07:00am 5.4 1.4 0.4 70 1.9 NW 11 13 6 7 1015.4 1015.4 0.0
24/06:30am 5.7 1.6 -0.4 65 2.3 NNW 11 17 6 9 1015.2 1015.2 0.0
24/06:00am 6.9 2.0 -0.8 58 2.9 NW 15 22 8 12 1015.4 1015.4 0.0
24/05:30am 6.9 2.0 -0.8 58 2.9 WNW 15 20 8 11 1015.0 1015.0 0.0
24/05:00am 6.1 1.5 -1.1 60 2.7 WNW 13 17 7 9 1014.8 1014.8 0.0
24/04:30am 7.0 2.4 -1.2 56 3.1 WNW 13 15 7 8 1014.6 1014.6 0.0
24/04:00am 6.7 2.1 -1.4 56 3.0 W 13 15 7 8 1014.7 1014.7 0.0
24/03:30am 7.5 2.5 -1.4 53 3.4 WNW 15 20 8 11 1014.5 1014.5 0.0
24/03:00am 7.3 2.2 -1.9 52 3.4 W 15 20 8 11 1014.6 1014.6 0.0
24/02:30am 8.4 3.7 -2.0 48 3.9 WNW 13 17 7 9 1014.8 1014.8 0.0
24/02:00am 8.8 4.0 -2.2 46 4.1 WSW 13 22 7 12 1014.9 1014.9 0.0
24/01:30am 9.4 2.9 -2.5 43 4.5 SW 22 30 12 16 1014.9 1014.9 0.0
24/01:00am 9.0 4.2 -2.3 45 4.2 SSW 13 22 7 12 1014.6 1014.6 0.0
24/12:30am 9.3 3.8 -2.0 45 4.3 SW 17 24 9 13 1014.4 1014.4 0.0
24/12:00am 9.5 3.7 -1.5 46 4.2 SW 19 24 10 13 1014.1 1014.1 0.0
 
Date/Time
EST
Temp
°C
App
Temp
°C
Dew
Point
°C
Rel
Hum
%
Delta-T
°C
Wind Press
QNH
hPa
Press
MSL
hPa
Rain since
9am
mm
Dir  Spd
km/h
Gust
km/h
Spd
kts
Gust
kts
23/11:30pm 9.8 4.0 -1.6 45 4.4 SW 19 28 10 15 1013.8 1013.8 0.0
23/11:00pm 9.9 4.9 -0.9 47 4.2 SSW 15 24 8 13 1013.4 1013.4 0.0
23/10:30pm 10.2 4.5 -0.9 46 4.4 SW 19 30 10 16 1013.1 1013.1 0.0
23/10:00pm 9.9 5.5 0.3 51 3.9 SW 13 17 7 9 1012.8 1012.8 0.0
23/09:30pm 10.4 6.7 -0.1 48 4.2 SSE 9 13 5 7 1012.1 1012.1 0.0
23/09:00pm 10.0 6.7 0.1 50 4.0 S 7 13 4 7 1011.3 1011.3 0.0
23/08:30pm 10.2 6.9 0.3 50 4.0 SSE 7 9 4 5 1011.3 1011.3 0.0
23/08:00pm 11.2 6.8 0.3 47 4.5 SW 13 20 7 11 1010.6 1010.6 0.0
23/07:30pm 11.9 6.7 0.4 45 4.8 SW 17 26 9 14 1010.0 1010.0 0.0
23/07:00pm 12.0 9.0 0.8 46 4.7 SW 6 11 3 6 1009.4 1009.4 0.0
23/06:30pm 11.7 8.5 0.5 46 4.6 WSW 7 11 4 6 1008.8 1008.8 0.0
23/06:00pm 12.3 7.9 0.1 43 5.0 W 13 17 7 9 1008.0 1008.0 0.0
23/05:30pm 13.4 8.6 0.1 40 5.5 WNW 15 24 8 13 1007.2 1007.2 0.0
23/05:00pm 13.5 9.4 -0.2 39 5.7 W 11 15 6 8 1006.9 1006.9 0.0
23/04:30pm 15.4 10.2 0.0 35 6.5 WSW 17 26 9 14 1006.4 1006.4 0.0
23/04:00pm 16.2 10.0 -0.5 32 7.1 W 22 33 12 18 1005.4 1005.4 0.0
23/03:30pm 16.5 8.5 0.2 33 7.0 WNW 32 43 17 23 1004.7 1004.7 0.0
23/03:00pm 16.8 10.5 1.7 36 6.7 WNW 24 39 13 21 1004.4 1004.4 0.0
23/02:30pm 16.9 10.3 1.8 36 6.7 WNW 26 39 14 21 1003.7 1003.7 0.0
23/02:00pm 16.8 9.0 2.0 37 6.7 WNW 32 43 17 23 1003.7 1003.7 0.0
23/01:33pm 16.9 9.6 2.5 38 6.5 WNW 30 48 16 26 1003.6 1003.6 0.0
23/01:30pm 16.7 9.2 3.4 41 6.1 WNW 32 48 17 26 1003.6 1003.6 0.0
23/01:00pm 16.4 9.5 2.4 39 6.3 NW 28 46 15 25 1003.5 1003.5 0.0
23/12:30pm 16.5 8.6 2.2 38 6.4 WNW 33 57 18 31 1003.6 1003.6 0.0
23/12:23pm 16.4 9.6 3.1 41 6.1 WNW 28 46 15 25 1003.6 1003.6 0.0
23/12:00pm 16.6 8.8 2.6 39 6.4 WNW 33 46 18 25 1003.6 1003.6 0.0
23/11:30am 16.1 7.0 1.8 38 6.3 WNW 39 54 21 29 1003.6 1003.6 0.0
23/11:00am 15.8 8.0 1.9 39 6.2 WNW 32 50 17 27 1004.1 1004.1 0.0
23/10:32am 15.6 8.6 2.1 40 6.0 WNW 28 46 15 25 1004.5 1004.5 0.0
23/10:30am 15.3 8.6 1.4 39 6.1 WNW 26 44 14 24 1004.5 1004.5 0.0
23/10:00am 14.9 7.8 1.1 39 6.0 W 28 52 15 28 1004.9 1004.9 0.0
23/09:59am 14.9 8.2 1.4 40 5.9 W 26 52 14 28 1004.9 1004.9 0.0
23/09:30am 14.8 8.1 1.7 41 5.7 WNW 26 37 14 20 1004.7 1004.7 0.0
23/09:00am 14.5 8.4 2.7 45 5.3 WNW 24 48 13 26 1004.0 1004.0 3.2
23/08:42am 14.3 6.3 0.6 39 5.8 WNW 32 54 17 29 1003.7 1003.7 3.2
23/08:30am 14.5 7.4 1.4 41 5.7 WNW 28 41 15 22 1003.6 1003.6 3.2
23/08:02am 14.6 6.4 -1.1 34 6.4 W 32 50 17 27 1003.4 1003.4 3.2
23/08:00am 14.4 6.3 -0.1 37 6.1 W 32 46 17 25 1003.4 1003.4 3.2
23/07:31am 14.4 6.4 0.6 39 5.9 W 32 50 17 27 1002.8 1002.8 3.2
23/07:30am 14.5 6.4 0.7 39 5.9 W 33 50 18 27 1002.8 1002.8 3.2
23/07:02am 14.8 6.8 1.7 41 5.7 W 33 52 18 28 1002.6 1002.6 3.2
23/07:00am 14.6 6.8 1.8 42 5.6 W 32 48 17 26 1002.4 1002.4 3.2
23/06:59am 14.8 7.3 1.0 39 5.9 W 30 48 16 26 1002.4 1002.4 3.2
23/06:30am 14.8 8.9 3.9 48 5.0 WNW 24 39 13 21 1001.6 1001.6 3.2
23/06:13am 15.0 8.5 4.7 50 4.8 W 28 50 15 27 1000.8 1000.8 3.2
23/06:00am 15.1 7.9 5.0 51 4.8 W 32 44 17 24 1000.7 1000.7 3.2
23/05:33am 15.0 8.7 5.5 53 4.5 W 28 46 15 25 1000.0 1000.0 3.2
23/05:30am 15.0 8.3 5.5 53 4.5 W 30 46 16 25 1000.0 1000.0 3.2
23/05:13am 15.7 10.5 5.3 50 4.9 W 22 48 12 26 999.5 999.5 3.2
23/05:00am 15.6 10.9 5.2 50 5.0 NW 19 32 10 17 999.1 999.1 3.2
23/04:30am 15.9 11.3 5.5 50 5.0 WNW 19 28 10 15 998.8 998.8 3.2
23/04:00am 15.4 11.9 5.3 51 4.8 NW 13 26 7 14 998.7 998.7 3.2
23/03:30am 16.0 12.4 5.0 48 5.2 WNW 13 17 7 9 998.5 998.5 3.2
23/03:00am 17.2 12.0 5.5 46 5.7 W 22 39 12 21 998.0 998.0 3.2
23/02:30am 16.9 13.5 9.3 61 3.9 WNW 17 24 9 13 997.7 997.7 3.2
23/02:00am 17.8 14.4 11.1 65 3.6 W 20 33 11 18 997.7 997.7 3.2
23/01:30am 16.6 17.2 15.3 92 0.8 SSW 6 7 3 4 997.9 997.9 3.2
23/01:00am 17.1 17.3 15.8 92 0.8 SW 9 13 5 7 998.1 998.1 3.2
23/12:30am 17.5 17.3 15.8 90 1.0 WSW 11 22 6 12 997.6 997.6 3.2
23/12:00am 17.2 17.4 15.7 91 0.9 SSE 9 15 5 8 997.9 997.9 2.2
 
Date/Time
EST
Temp
°C
App
Temp
°C
Dew
Point
°C
Rel
Hum
%
Delta-T
°C
Wind Press
QNH
hPa
Press
MSL
hPa
Rain since
9am
mm
Dir  Spd
km/h
Gust
km/h
Spd
kts
Gust
kts
22/11:30pm 18.3 15.2 14.6 79 2.1 S 24 33 13 18 997.2 997.2 0.0
22/11:29pm 18.5 15.4 14.4 77 2.4 S 24 33 13 18 997.0 997.0 0.0
22/11:00pm 20.6 20.0 13.6 64 4.0 SSW 9 13 5 7 996.4 996.4 0.0
22/10:30pm 22.1 20.8 13.7 59 4.9 NNW 13 17 7 9 996.6 996.6 0.0
22/10:00pm 22.2 20.5 13.5 57 5.1 N 15 20 8 11 997.0 997.0 0.0
22/09:30pm 22.3 20.1 13.4 57 5.1 N 17 24 9 13 997.4 997.4 0.0
22/09:00pm 21.8 20.0 13.2 58 5.0 NNW 15 22 8 12 998.3 998.3 0.0
22/08:30pm 22.0 19.7 13.1 57 5.1 NNW 17 24 9 13 998.9 998.9 0.0
22/08:00pm 22.0 19.4 13.1 57 5.1 NNW 19 26 10 14 999.1 999.1 0.0
22/07:30pm 22.3 19.7 13.1 56 5.3 NNW 19 28 10 15 999.5 999.5 0.0
22/07:00pm 22.4 20.0 12.6 54 5.6 NNW 17 24 9 13 999.2 999.2 0.0
22/06:30pm 22.7 19.3 12.6 53 5.8 NNW 22 35 12 19 998.8 998.8 0.0
22/06:00pm 22.4 20.1 12.9 55 5.5 NNW 17 20 9 11 999.7 999.7 0.0
22/05:30pm 22.5 21.0 13.0 55 5.4 NNW 13 20 7 11 999.6 999.6 0.0
22/05:00pm 22.6 21.1 13.1 55 5.5 WNW 13 20 7 11 1000.3 1000.3 0.0
22/04:30pm 24.1 21.2 13.0 50 6.4 WNW 20 37 11 20 999.6 999.6 0.0
22/04:00pm 24.9 22.6 14.1 51 6.4 WNW 19 28 10 15 1000.1 1000.1 0.0
22/03:30pm 25.3 21.2 13.8 49 6.8 NW 28 41 15 22 1000.3 1000.3 0.0
22/03:10pm 25.4 21.3 13.9 49 6.8 NW 28 46 15 25 1000.5 1000.5 0.0
22/03:00pm 25.6 23.1 14.1 49 6.8 WNW 20 26 11 14 1000.9 1000.9 0.0
22/02:30pm 25.3 21.8 13.5 48 6.9 WNW 24 39 13 21 1001.6 1001.6 0.0
22/02:02pm 24.9 20.2 13.1 48 6.9 WNW 30 48 16 26 1001.6 1001.6 0.0
22/02:00pm 25.2 20.1 13.1 47 7.1 WNW 32 48 17 26 1001.5 1001.5 0.0
22/01:31pm 25.1 21.3 14.6 52 6.3 NW 28 46 15 25 1001.8 1001.8 0.0
22/01:30pm 25.0 21.3 13.9 50 6.5 NW 26 46 14 25 1001.8 1001.8 0.0
22/01:00pm 24.6 22.6 15.5 57 5.5 NNW 20 30 11 16 1002.4 1002.4 0.0
22/12:30pm 23.5 20.9 15.0 59 5.1 NNW 22 32 12 17 1003.3 1003.3 0.0
22/12:00pm 22.2 19.2 14.8 63 4.4 NNW 24 37 13 20 1004.1 1004.1 0.0
22/11:30am 21.0 18.8 14.9 68 3.6 NNW 20 30 11 16 1004.8 1004.8 0.0
22/11:00am 20.2 17.4 14.3 69 3.4 NNW 22 32 12 17 1005.8 1005.8 0.0
22/10:30am 20.0 16.7 13.9 68 3.5 NNW 24 35 13 19 1006.6 1006.6 0.0
22/10:00am 20.0 16.7 13.9 68 3.5 NNW 24 32 13 17 1007.5 1007.5 0.0
22/09:30am 19.8 16.0 13.5 67 3.6 N 26 39 14 21 1008.0 1008.0 0.0
22/09:00am 18.9 15.7 14.2 74 2.7 NNW 24 39 13 21 1008.4 1008.4 0.4
22/08:55am 18.3 15.3 13.8 75 2.6 NNW 22 33 12 18 1008.7 1008.7 0.4
22/08:30am 13.3 14.3 13.1 99 0.1 CALM 0 0 0 0 1009.4 1009.4 0.4
22/08:09am 11.4 11.4 11.2 99 0.1 WSW 2 6 1 3 1009.7 1009.7 0.4
22/08:05am 11.1 11.0 10.9 99 0.1 WSW 2 6 1 3 1009.6 1009.6 0.4
22/08:00am 10.8 11.0 10.6 99 0.1 CALM 0 6 0 3 1009.9 1009.9 0.4
22/07:30am 9.9 9.9 9.8 99 0.1 CALM 0 0 0 0 1010.2 1010.2 0.4
22/07:00am 10.0 10.0 9.9 99 0.1 CALM 0 0 0 0 1010.4 1010.4 0.4
22/06:30am 10.2 10.3 10.1 99 0.1 CALM 0 0 0 0 1010.4 1010.4 0.2

Latest Capital City Observations: Canberra | Sydney | Melbourne | Brisbane | Adelaide | Perth | Hobart | Darwin

Other Formats:

Comma delimited format used in spreadsheet applications
http://www.bom.gov.au/fwo/IDN60901/IDN60901.94765.axf

JavaScript Object Notation format (JSON) in row-major order
http://www.bom.gov.au/fwo/IDN60901/IDN60901.94765.json